createdAt,value
2022-07-29T00:02:00.763Z,69.96
2022-07-29T00:04:31.287Z,70.42
2022-07-29T00:07:04.661Z,70.00
2022-07-29T00:09:50.419Z,69.82
2022-07-29T00:12:27.699Z,70.92
2022-07-29T00:15:01.213Z,70.22
2022-07-29T00:17:31.423Z,69.96
2022-07-29T00:20:01.727Z,70.15
2022-07-29T00:22:32.365Z,69.94
2022-07-29T00:25:03.192Z,70.89
2022-07-29T00:27:36.626Z,69.00
2022-07-29T00:30:08.202Z,68.37
2022-07-29T00:32:38.866Z,68.47
2022-07-29T00:35:22.973Z,69.15
2022-07-29T00:37:53.612Z,69.26
2022-07-29T00:40:24.014Z,69.28
2022-07-29T00:42:57.299Z,69.51
2022-07-29T00:45:33.976Z,69.57
2022-07-29T00:48:05.773Z,68.78
2022-07-29T00:50:36.584Z,68.91
2022-07-29T00:53:08.333Z,67.56
2022-07-29T00:55:39.557Z,67.73
2022-07-29T00:58:13.205Z,67.13
2022-07-29T01:00:50.704Z,68.05
2022-07-29T01:03:20.988Z,67.84
2022-07-29T01:05:52.005Z,69.27
2022-07-29T01:08:24.213Z,70.71
2022-07-29T01:10:55.975Z,76.48
2022-07-29T01:13:30.922Z,78.52
2022-07-29T01:16:07.895Z,77.32
2022-07-29T01:18:42.163Z,78.67
2022-07-29T01:21:39.838Z,79.41
2022-07-29T01:24:27.836Z,78.69
2022-07-29T01:27:03.740Z,79.17
2022-07-29T01:29:41.144Z,79.78
2022-07-29T01:32:27.753Z,81.33
2022-07-29T01:35:04.980Z,80.81
2022-07-29T01:37:42.775Z,79.67
2022-07-29T01:40:23.863Z,79.66
2022-07-29T01:42:58.836Z,80.23
2022-07-29T01:45:42.598Z,80.86
2022-07-29T01:48:19.539Z,80.75
2022-07-29T01:50:53.604Z,80.41
2022-07-29T01:53:38.355Z,81.62
2022-07-29T01:56:10.764Z,82.80
2022-07-29T01:58:45.205Z,82.16
2022-07-29T02:01:20.587Z,81.54
2022-07-29T02:03:52.051Z,79.96
2022-07-29T02:06:25.160Z,79.91
2022-07-29T02:08:58.014Z,79.64
2022-07-29T02:11:28.731Z,79.04
2022-07-29T02:14:02.460Z,78.36
2022-07-29T02:16:37.584Z,78.33
2022-07-29T02:19:10.598Z,78.91
2022-07-29T02:21:42.111Z,78.42
2022-07-29T02:24:15.994Z,79.36
2022-07-29T02:26:48.793Z,78.59
2022-07-29T02:29:21.084Z,76.88
2022-07-29T02:31:56.176Z,78.53
2022-07-29T02:34:27.622Z,77.58
2022-07-29T02:37:00.112Z,77.51
2022-07-29T02:39:32.669Z,76.82
2022-07-29T02:42:07.347Z,77.23
2022-07-29T02:44:39.041Z,76.42
2022-07-29T02:47:20.558Z,75.85
2022-07-29T02:49:57.958Z,75.44
2022-07-29T02:52:35.881Z,75.02
2022-07-29T02:55:15.345Z,74.77
2022-07-29T02:57:54.944Z,75.54
2022-07-29T03:00:28.160Z,75.50
2022-07-29T03:03:03.794Z,74.93
2022-07-29T03:05:36.313Z,75.13
2022-07-29T03:08:10.232Z,75.51
2022-07-29T03:10:41.737Z,76.47
2022-07-29T03:13:13.679Z,76.52
2022-07-29T03:15:46.436Z,76.96
2022-07-29T03:18:19.880Z,76.46
2022-07-29T03:20:50.260Z,76.88
2022-07-29T03:23:24.967Z,77.16
2022-07-29T03:25:55.992Z,77.34
2022-07-29T03:28:28.420Z,78.23
2022-07-29T03:30:59.353Z,77.49
2022-07-29T03:33:32.767Z,78.80
2022-07-29T03:36:03.591Z,77.91
2022-07-29T03:38:38.453Z,78.50
2022-07-29T03:41:13.544Z,78.18
2022-07-29T03:43:49.697Z,78.00
2022-07-29T03:46:22.334Z,78.11
2022-07-29T03:49:02.677Z,78.80
2022-07-29T03:51:34.632Z,79.29
2022-07-29T03:54:09.941Z,79.46
2022-07-29T03:56:44.521Z,80.31
2022-07-29T03:59:15.672Z,81.11
2022-07-29T04:01:47.797Z,81.32
2022-07-29T04:04:22.096Z,80.92
2022-07-29T04:06:52.672Z,81.47
2022-07-29T04:09:23.418Z,82.22
2022-07-29T04:12:01.930Z,82.00
2022-07-29T04:14:35.900Z,82.55
2022-07-29T04:17:08.181Z,82.14
2022-07-29T04:19:41.517Z,80.95
2022-07-29T04:22:14.252Z,80.21
2022-07-29T04:24:44.824Z,80.59
2022-07-29T04:27:15.289Z,79.55
2022-07-29T04:29:57.138Z,79.71
2022-07-29T04:32:28.620Z,79.21
2022-07-29T04:35:01.804Z,78.28
2022-07-29T04:37:32.526Z,78.42
2022-07-29T04:40:21.008Z,78.27
2022-07-29T04:42:52.825Z,78.27
2022-07-29T04:45:26.633Z,78.58
2022-07-29T04:47:57.396Z,78.34
2022-07-29T04:50:31.456Z,77.96
2022-07-29T04:53:03.490Z,78.18
2022-07-29T04:55:34.162Z,77.41
2022-07-29T04:58:04.989Z,78.07
2022-07-29T05:00:38.887Z,77.58
2022-07-29T05:03:13.981Z,76.36
2022-07-29T05:05:48.390Z,76.02
2022-07-29T05:08:19.314Z,75.14
2022-07-29T05:10:50.246Z,75.65
2022-07-29T05:13:20.960Z,75.29
2022-07-29T05:15:53.185Z,74.88
2022-07-29T05:18:26.095Z,73.96
2022-07-29T05:21:00.407Z,72.71
2022-07-29T05:23:31.367Z,71.74
2022-07-29T05:26:03.286Z,70.69
2022-07-29T05:28:37.377Z,69.92
2022-07-29T05:31:08.765Z,69.73
2022-07-29T05:33:40.135Z,68.65
2022-07-29T05:36:17.896Z,68.57
2022-07-29T05:38:48.850Z,68.62
2022-07-29T05:41:19.727Z,67.31
2022-07-29T05:43:50.621Z,67.21
2022-07-29T05:46:21.537Z,66.70
2022-07-29T05:48:57.956Z,66.98
2022-07-29T05:51:32.090Z,67.25
2022-07-29T05:54:03.075Z,66.30
2022-07-29T05:56:34.165Z,65.63
2022-07-29T05:59:04.758Z,64.85
2022-07-29T06:01:49.000Z,64.50
2022-07-29T06:04:19.994Z,63.92
2022-07-29T06:06:53.101Z,63.67
2022-07-29T06:09:24.044Z,62.64
2022-07-29T06:11:54.237Z,63.00
2022-07-29T06:14:24.362Z,63.10
2022-07-29T06:16:54.506Z,63.75
2022-07-29T06:19:24.814Z,61.36
2022-07-29T06:21:58.005Z,60.22
2022-07-29T06:24:28.260Z,60.76
2022-07-29T06:26:58.897Z,60.11
2022-07-29T06:29:29.081Z,60.53
2022-07-29T06:31:59.362Z,59.88
2022-07-29T06:34:29.572Z,57.96
2022-07-29T06:37:03.979Z,57.08
2022-07-29T06:39:34.281Z,56.74
2022-07-29T06:42:04.781Z,56.18
2022-07-29T06:44:35.357Z,54.97
2022-07-29T06:47:06.340Z,54.64
2022-07-29T06:49:36.872Z,54.92
2022-07-29T06:52:09.644Z,54.05
2022-07-29T06:54:40.997Z,54.03
2022-07-29T06:57:11.191Z,52.39
2022-07-29T06:59:41.370Z,51.80
2022-07-29T07:02:12.100Z,51.35
2022-07-29T07:04:42.322Z,52.35
2022-07-29T07:07:15.003Z,51.58
2022-07-29T07:09:45.154Z,51.00
2022-07-29T07:12:15.568Z,51.07
2022-07-29T07:14:45.769Z,51.00
2022-07-29T07:17:15.964Z,51.50
2022-07-29T07:19:46.246Z,50.82
2022-07-29T07:22:19.041Z,49.63
2022-07-29T07:24:49.178Z,48.86
2022-07-29T07:27:19.420Z,46.70
2022-07-29T07:29:49.594Z,48.54
2022-07-29T07:32:20.684Z,47.51
2022-07-29T07:34:50.955Z,46.63
2022-07-29T07:37:23.673Z,47.08
2022-07-29T07:39:53.761Z,46.32
2022-07-29T07:42:23.944Z,47.40
2022-07-29T07:45:12.580Z,47.33
2022-07-29T07:47:44.072Z,45.64
2022-07-29T07:50:18.862Z,47.74
2022-07-29T07:52:58.844Z,45.57
2022-07-29T07:55:42.417Z,44.79
2022-07-29T07:58:19.976Z,43.85
2022-07-29T08:00:50.690Z,44.46
2022-07-29T08:03:20.959Z,48.08
2022-07-29T08:05:52.151Z,44.65
2022-07-29T08:08:25.139Z,43.86
2022-07-29T08:11:02.276Z,44.15
2022-07-29T08:13:35.706Z,43.22
2022-07-29T08:16:12.744Z,44.83
2022-07-29T08:18:44.190Z,41.84
2022-07-29T08:21:14.905Z,43.09
2022-07-29T08:24:00.655Z,40.39
2022-07-29T08:26:33.056Z,41.40
2022-07-29T08:29:03.626Z,42.04
2022-07-29T08:31:35.074Z,40.32
2022-07-29T08:34:05.511Z,39.91
2022-07-29T08:36:35.819Z,39.66
2022-07-29T08:39:08.754Z,39.86
2022-07-29T08:41:39.481Z,39.91
2022-07-29T08:44:09.780Z,39.91
2022-07-29T08:46:42.408Z,41.12
2022-07-29T08:49:12.746Z,41.46
2022-07-29T08:51:49.228Z,39.60
2022-07-29T08:54:27.796Z,38.87
2022-07-29T08:56:59.773Z,38.54
2022-07-29T08:59:34.505Z,39.46
2022-07-29T09:02:06.865Z,38.03
2022-07-29T09:04:39.891Z,37.89
2022-07-29T09:07:10.586Z,39.18
2022-07-29T09:09:43.846Z,37.81
2022-07-29T09:12:27.813Z,37.58
2022-07-29T09:14:59.784Z,36.88
2022-07-29T09:17:46.490Z,35.89
2022-07-29T09:20:19.737Z,35.80
2022-07-29T09:22:52.007Z,39.68
2022-07-29T09:25:41.319Z,35.57
2022-07-29T09:28:12.708Z,35.47
2022-07-29T09:30:55.246Z,36.00
2022-07-29T09:33:26.519Z,35.01
2022-07-29T09:36:08.246Z,34.91
2022-07-29T09:38:39.158Z,32.46
2022-07-29T09:41:11.941Z,32.45
2022-07-29T09:43:43.647Z,31.98
2022-07-29T09:46:15.809Z,30.52
2022-07-29T09:48:46.195Z,31.57
2022-07-29T09:51:38.309Z,32.01
2022-07-29T09:54:26.860Z,31.07
2022-07-29T09:56:59.839Z,31.24
2022-07-29T09:59:30.633Z,30.43
2022-07-29T10:02:01.127Z,31.03
2022-07-29T10:04:42.913Z,31.29
2022-07-29T10:07:13.424Z,29.62
2022-07-29T10:09:53.457Z,31.00
2022-07-29T10:12:26.848Z,30.66
2022-07-29T10:14:57.273Z,28.70
2022-07-29T10:17:27.498Z,31.18
2022-07-29T10:19:57.932Z,31.48
2022-07-29T10:22:52.059Z,29.58
2022-07-29T10:25:19.954Z,30.13
2022-07-29T10:27:53.539Z,29.35
2022-07-29T10:30:25.496Z,27.91
2022-07-29T10:33:29.737Z,28.93
2022-07-29T10:36:16.298Z,28.93
2022-07-29T10:38:52.730Z,31.32
2022-07-29T10:41:44.292Z,30.39
2022-07-29T10:44:23.129Z,29.03
2022-07-29T10:46:55.250Z,30.48
2022-07-29T10:49:30.285Z,30.38
2022-07-29T10:52:05.833Z,30.41
2022-07-29T10:54:51.672Z,30.71
2022-07-29T10:57:54.080Z,29.07
2022-07-29T11:00:35.088Z,30.34
2022-07-29T11:03:10.559Z,28.55
2022-07-29T11:06:02.981Z,29.32
2022-07-29T11:08:39.191Z,28.65
2022-07-29T11:11:44.002Z,27.55
2022-07-29T11:14:26.454Z,28.30
2022-07-29T11:17:09.135Z,29.40
2022-07-29T11:19:45.695Z,28.18
2022-07-29T11:22:45.993Z,26.90
2022-07-29T11:25:18.428Z,28.28
2022-07-29T11:27:49.126Z,28.02
2022-07-29T11:30:19.473Z,29.39
2022-07-29T11:33:01.154Z,27.53
2022-07-29T11:35:38.101Z,29.26
2022-07-29T11:38:29.209Z,27.94
2022-07-29T11:41:27.205Z,27.62
2022-07-29T11:43:59.333Z,30.01
2022-07-29T11:46:50.641Z,29.65
2022-07-29T11:49:32.102Z,25.74
2022-07-29T11:52:05.526Z,25.73
2022-07-29T11:54:57.459Z,26.17
2022-07-29T11:57:36.106Z,28.06
2022-07-29T12:00:12.497Z,27.90
2022-07-29T12:02:48.145Z,25.75
2022-07-29T12:05:36.483Z,26.93
2022-07-29T12:08:12.734Z,27.81
2022-07-29T12:10:47.233Z,24.49
2022-07-29T12:13:19.609Z,24.22
2022-07-29T12:16:00.071Z,25.65
2022-07-29T12:18:30.774Z,26.58
2022-07-29T12:21:05.338Z,24.35
2022-07-29T12:23:36.130Z,24.24
2022-07-29T12:26:10.908Z,24.56
2022-07-29T12:28:42.193Z,27.29
2022-07-29T12:31:43.517Z,26.12
2022-07-29T12:34:08.846Z,27.22
2022-07-29T12:36:42.990Z,26.71
2022-07-29T12:39:15.757Z,26.92
2022-07-29T12:41:47.152Z,26.27
2022-07-29T12:44:17.411Z,24.95
2022-07-29T12:46:49.488Z,25.21
2022-07-29T12:49:25.677Z,24.25
2022-07-29T12:51:58.990Z,27.31
2022-07-29T12:54:29.820Z,25.80
2022-07-29T12:57:05.325Z,26.31
2022-07-29T12:59:36.221Z,26.27
2022-07-29T13:02:08.723Z,27.56
2022-07-29T13:04:39.313Z,25.53
2022-07-29T13:07:13.092Z,28.03
2022-07-29T13:09:47.139Z,24.50
2022-07-29T13:12:18.040Z,25.07
2022-07-29T13:14:50.451Z,24.74
2022-07-29T13:17:24.107Z,23.91
2022-07-29T13:19:55.929Z,24.67
2022-07-29T13:22:30.444Z,24.64
2022-07-29T13:25:03.054Z,27.36
2022-07-29T13:27:33.680Z,25.15
2022-07-29T13:30:05.482Z,27.29
2022-07-29T13:32:37.478Z,26.88
2022-07-29T13:35:10.351Z,25.57
2022-07-29T13:37:43.771Z,27.12
2022-07-29T13:40:15.340Z,23.63
2022-07-29T13:42:46.108Z,25.33
2022-07-29T13:45:22.983Z,27.52
2022-07-29T13:47:53.354Z,26.75
2022-07-29T13:50:23.705Z,25.95
2022-07-29T13:52:56.551Z,26.75
2022-07-29T13:55:26.896Z,25.14
2022-07-29T13:57:57.132Z,25.72
2022-07-29T14:00:27.598Z,26.11
2022-07-29T14:02:57.849Z,27.12
2022-07-29T14:05:28.094Z,27.01
2022-07-29T14:08:03.580Z,27.32
2022-07-29T14:10:33.746Z,26.51
2022-07-29T14:13:04.085Z,27.37
2022-07-29T14:15:39.301Z,25.33
2022-07-29T14:18:09.754Z,25.90
2022-07-29T14:20:40.472Z,26.66
2022-07-29T14:23:16.222Z,25.86
2022-07-29T14:25:50.206Z,25.42
2022-07-29T14:28:20.851Z,26.88
2022-07-29T14:30:51.543Z,26.32
2022-07-29T14:33:22.931Z,27.03
2022-07-29T14:35:53.593Z,26.40
2022-07-29T14:38:27.966Z,26.95
2022-07-29T14:40:58.688Z,27.24
2022-07-29T14:43:29.415Z,26.80
2022-07-29T14:46:04.026Z,27.77
2022-07-29T14:48:36.407Z,27.76
2022-07-29T14:51:07.277Z,25.83
2022-07-29T14:53:40.861Z,28.60
2022-07-29T14:56:35.582Z,27.54
2022-07-29T14:59:01.924Z,27.95
2022-07-29T15:01:32.115Z,24.45
2022-07-29T15:04:02.311Z,26.32
2022-07-29T15:06:32.469Z,25.56
2022-07-29T15:09:05.311Z,28.10
2022-07-29T15:11:38.744Z,27.65
2022-07-29T15:17:44.884Z,26.94
2022-07-29T15:20:15.629Z,26.61
2022-07-29T15:22:45.838Z,27.53
2022-07-29T15:25:18.616Z,27.87
2022-07-29T15:27:52.343Z,28.48
2022-07-29T15:30:31.472Z,29.59
2022-07-29T15:33:04.878Z,28.00
2022-07-29T15:35:40.505Z,28.88
2022-07-29T15:38:11.580Z,29.07
2022-07-29T15:40:45.575Z,29.35
2022-07-29T15:43:15.786Z,28.36
2022-07-29T15:46:09.555Z,30.44
2022-07-29T15:48:42.098Z,30.36
2022-07-29T15:51:12.005Z,31.06
2022-07-29T15:53:42.614Z,28.24
2022-07-29T15:56:15.447Z,28.27
2022-07-29T15:58:46.728Z,27.41
2022-07-29T16:01:17.702Z,27.88
2022-07-29T16:03:47.996Z,28.59
2022-07-29T16:06:18.338Z,29.07
2022-07-29T16:08:49.147Z,29.91
2022-07-29T16:11:21.904Z,30.37
2022-07-29T16:13:53.726Z,30.53
2022-07-29T16:16:23.901Z,29.04
2022-07-29T16:18:54.279Z,30.79
2022-07-29T16:21:25.188Z,31.10
2022-07-29T16:23:55.750Z,30.85
2022-07-29T16:26:28.754Z,31.12
2022-07-29T16:29:00.075Z,31.95
2022-07-29T16:31:30.909Z,30.37
2022-07-29T16:34:01.084Z,31.61
2022-07-29T16:36:31.305Z,30.75
2022-07-29T16:39:02.029Z,32.31
2022-07-29T16:41:35.019Z,30.89
2022-07-29T16:44:05.455Z,31.78
2022-07-29T16:46:37.867Z,31.42
2022-07-29T16:49:10.446Z,31.69
2022-07-29T16:51:40.749Z,32.21
2022-07-29T16:54:11.600Z,32.38
2022-07-29T16:56:44.408Z,33.87
2022-07-29T16:59:14.681Z,33.79
2022-07-29T17:01:44.901Z,32.81
2022-07-29T17:04:15.262Z,32.69
2022-07-29T17:06:45.585Z,34.41
2022-07-29T17:09:19.526Z,33.54
2022-07-29T17:11:55.023Z,34.00
2022-07-29T17:14:27.436Z,35.40
2022-07-29T17:17:01.208Z,35.57
2022-07-29T17:19:33.861Z,34.21
2022-07-29T17:22:13.104Z,36.90
2022-07-29T17:24:49.140Z,36.99
2022-07-29T17:27:22.127Z,37.11
2022-07-29T17:29:52.283Z,37.36
2022-07-29T17:32:22.454Z,38.47
2022-07-29T17:34:52.824Z,38.33
2022-07-29T17:37:23.112Z,38.69
2022-07-29T17:39:56.210Z,39.40
2022-07-29T17:42:31.329Z,40.55
2022-07-29T17:45:01.092Z,40.30
2022-07-29T17:47:31.222Z,40.28
2022-07-29T17:50:01.429Z,40.31
2022-07-29T17:52:31.577Z,40.02
2022-07-29T17:55:02.690Z,40.31
2022-07-29T17:57:35.377Z,41.90
2022-07-29T18:00:08.415Z,42.95
2022-07-29T18:02:41.819Z,42.95
2022-07-29T18:05:12.354Z,44.26
2022-07-29T18:07:42.503Z,44.77
2022-07-29T18:10:13.150Z,45.26
2022-07-29T18:12:45.913Z,44.58
2022-07-29T18:15:15.945Z,44.79
2022-07-29T18:17:56.604Z,45.54
2022-07-29T18:20:28.197Z,46.51
2022-07-29T18:22:58.595Z,47.48
2022-07-29T18:25:30.141Z,49.11
2022-07-29T18:28:02.897Z,47.55
2022-07-29T18:30:34.066Z,47.24
2022-07-29T18:33:21.697Z,49.14
2022-07-29T18:36:11.109Z,48.84
2022-07-29T18:38:43.009Z,48.78
2022-07-29T18:41:13.155Z,48.57
2022-07-29T18:43:45.997Z,50.58
2022-07-29T18:46:17.244Z,51.06
2022-07-29T18:48:48.942Z,51.26
2022-07-29T18:51:19.308Z,51.25
2022-07-29T18:53:49.422Z,52.07
2022-07-29T18:56:19.621Z,52.10
2022-07-29T18:58:52.610Z,52.92
2022-07-29T19:01:23.139Z,52.96
2022-07-29T19:04:01.885Z,53.26
2022-07-29T19:06:32.269Z,53.14
2022-07-29T19:09:02.655Z,55.03
2022-07-29T19:11:33.103Z,54.97
2022-07-29T19:14:06.472Z,55.06
2022-07-29T19:16:36.947Z,55.10
2022-07-29T19:19:07.650Z,57.04
2022-07-29T19:21:37.771Z,56.47
2022-07-29T19:24:15.278Z,55.92
2022-07-29T19:26:46.941Z,56.77
2022-07-29T19:29:20.687Z,56.66
2022-07-29T19:31:51.215Z,56.99
2022-07-29T19:34:21.825Z,57.43
2022-07-29T19:36:52.530Z,58.39
2022-07-29T19:39:31.965Z,57.51
2022-07-29T19:42:06.802Z,57.88
2022-07-29T19:44:40.645Z,58.45
2022-07-29T19:47:17.334Z,58.54
2022-07-29T19:49:48.058Z,57.52
2022-07-29T19:52:18.525Z,58.43
2022-07-29T19:54:49.529Z,59.30
2022-07-29T19:57:20.045Z,59.63
2022-07-29T19:59:53.734Z,59.71
2022-07-29T20:02:24.448Z,59.26
2022-07-29T20:04:54.993Z,59.30
2022-07-29T20:07:25.579Z,59.20
2022-07-29T20:09:57.154Z,59.19
2022-07-29T20:12:27.626Z,59.24
2022-07-29T20:15:00.774Z,58.30
2022-07-29T20:17:31.175Z,59.77
2022-07-29T20:20:02.792Z,57.00
2022-07-29T20:22:33.567Z,57.04
2022-07-29T20:25:04.331Z,56.95
2022-07-29T20:27:37.066Z,57.29
2022-07-29T20:30:13.618Z,57.16
2022-07-29T20:32:44.938Z,58.44
2022-07-29T20:35:15.683Z,58.36
2022-07-29T20:37:52.281Z,58.84
2022-07-29T20:40:26.822Z,59.53
2022-07-29T20:42:57.856Z,59.45
2022-07-29T20:45:34.770Z,59.65
2022-07-29T20:48:05.635Z,60.50
2022-07-29T20:50:38.933Z,60.73
2022-07-29T20:53:09.515Z,61.16
2022-07-29T20:55:40.073Z,61.36
2022-07-29T20:58:10.592Z,61.25
2022-07-29T21:00:46.167Z,61.61
2022-07-29T21:03:18.661Z,61.89
2022-07-29T21:05:49.161Z,62.07
2022-07-29T21:08:19.713Z,61.54
2022-07-29T21:10:50.536Z,62.33
2022-07-29T21:13:22.844Z,62.67
2022-07-29T21:16:02.011Z,62.98
2022-07-29T21:18:37.806Z,62.45
2022-07-29T21:21:08.984Z,63.13
2022-07-29T21:23:39.738Z,62.72
2022-07-29T21:26:13.869Z,63.51
2022-07-29T21:28:41.546Z,63.72
2022-07-29T21:31:17.170Z,64.35
2022-07-29T21:33:49.795Z,65.14
2022-07-29T21:36:47.217Z,65.96
2022-07-29T21:39:12.320Z,65.16
2022-07-29T21:41:43.499Z,65.80
2022-07-29T21:44:14.193Z,65.38
2022-07-29T21:46:47.990Z,66.32
2022-07-29T21:49:18.763Z,67.05
2022-07-29T21:51:49.242Z,66.71
2022-07-29T21:54:21.192Z,67.55
2022-07-29T21:56:52.664Z,68.22
2022-07-29T21:59:23.358Z,68.68
2022-07-29T22:01:56.904Z,69.10
2022-07-29T22:04:27.435Z,68.79
2022-07-29T22:06:58.527Z,68.16
2022-07-29T22:09:29.837Z,70.02
2022-07-29T22:12:00.400Z,69.31
2022-07-29T22:14:30.854Z,70.09
2022-07-29T22:17:04.317Z,69.82
2022-07-29T22:19:35.042Z,69.21
2022-07-29T22:22:05.900Z,70.18
2022-07-29T22:24:36.881Z,69.72
2022-07-29T22:27:07.524Z,70.26
2022-07-29T22:29:37.688Z,70.44
2022-07-29T22:32:11.418Z,71.38
2022-07-29T22:34:41.870Z,72.30
2022-07-29T22:37:12.241Z,71.94
2022-07-29T22:39:42.683Z,72.67
2022-07-29T22:42:13.079Z,72.43
2022-07-29T22:44:43.688Z,73.76
2022-07-29T22:47:17.011Z,74.38
2022-07-29T22:49:47.499Z,74.11
2022-07-29T22:52:17.724Z,75.06
2022-07-29T22:54:48.003Z,75.98
2022-07-29T22:57:18.502Z,75.94
2022-07-29T22:59:48.827Z,76.19
2022-07-29T23:02:22.149Z,75.42
2022-07-29T23:04:52.821Z,74.81
2022-07-29T23:07:23.423Z,75.98
2022-07-29T23:09:53.945Z,75.93
2022-07-29T23:12:24.268Z,74.69
2022-07-29T23:14:54.632Z,75.20
2022-07-29T23:17:27.701Z,74.36
2022-07-29T23:19:58.095Z,75.94
2022-07-29T23:22:28.542Z,75.59
2022-07-29T23:24:59.174Z,76.45
2022-07-29T23:27:29.573Z,76.72
2022-07-29T23:29:59.936Z,76.84
2022-07-29T23:32:33.581Z,75.87
2022-07-29T23:35:05.468Z,77.07
2022-07-29T23:37:35.708Z,77.76
2022-07-29T23:40:08.679Z,77.36
2022-07-29T23:42:42.355Z,78.32
2022-07-29T23:45:17.394Z,78.49
2022-07-29T23:47:50.595Z,78.71
2022-07-29T23:50:20.949Z,80.00
2022-07-29T23:52:51.852Z,81.97
2022-07-29T23:55:37.546Z,83.30
2022-07-29T23:58:09.474Z,84.11
